createdAt,value
2019-05-19T00:00:15.779Z,92.44
2019-05-19T00:01:15.760Z,92.34
2019-05-19T00:02:15.746Z,92.34
2019-05-19T00:03:15.731Z,92.54
2019-05-19T00:04:15.730Z,92.29
2019-05-19T00:05:15.722Z,92.72
2019-05-19T00:06:15.688Z,92.54
2019-05-19T00:07:15.676Z,92.54
2019-05-19T00:08:15.663Z,93.01
2019-05-19T00:09:16.662Z,92.82
2019-05-19T00:10:15.635Z,93.11
2019-05-19T00:11:15.621Z,93.11
2019-05-19T00:12:15.604Z,93.40
2019-05-19T00:13:15.597Z,93.11
2019-05-19T00:14:15.574Z,93.49
2019-05-19T00:15:15.562Z,93.30
2019-05-19T00:16:15.547Z,93.21
2019-05-19T00:17:15.533Z,93.21
2019-05-19T00:18:15.517Z,93.40
2019-05-19T00:19:26.380Z,93.40
2019-05-19T00:20:15.491Z,93.59
2019-05-19T00:21:15.482Z,93.30
2019-05-19T00:22:15.463Z,93.30
2019-05-19T00:23:15.443Z,93.59
2019-05-19T00:24:15.433Z,93.59
2019-05-19T00:25:15.413Z,93.78
2019-05-19T00:26:15.412Z,93.88
2019-05-19T00:27:15.386Z,93.88
2019-05-19T00:28:15.376Z,94.07
2019-05-19T00:29:15.356Z,94.26
2019-05-19T00:30:15.341Z,94.26
2019-05-19T00:31:15.327Z,94.26
2019-05-19T00:32:15.317Z,94.07
2019-05-19T00:33:15.301Z,93.68
2019-05-19T00:34:15.294Z,94.26
2019-05-19T00:35:15.272Z,94.17
2019-05-19T00:36:15.256Z,94.35
2019-05-19T00:37:15.240Z,94.59
2019-05-19T00:38:15.234Z,94.35
2019-05-19T00:39:15.225Z,94.35
2019-05-19T00:40:15.205Z,94.59
2019-05-19T00:41:15.193Z,94.59
2019-05-19T00:42:15.175Z,94.50
2019-05-19T00:43:15.161Z,94.98
2019-05-19T00:44:15.171Z,95.07
2019-05-19T00:45:15.141Z,95.07
2019-05-19T00:46:15.115Z,94.79
2019-05-19T00:47:15.099Z,95.46
2019-05-19T00:48:15.083Z,95.36
2019-05-19T00:49:15.079Z,95.36
2019-05-19T00:50:15.051Z,95.07
2019-05-19T00:51:15.038Z,95.84
2019-05-19T00:52:15.025Z,95.56
2019-05-19T00:53:15.015Z,95.65
2019-05-19T00:54:14.994Z,95.56
2019-05-19T00:55:14.996Z,95.94
2019-05-19T00:56:14.978Z,96.13
2019-05-19T00:57:14.955Z,95.94
2019-05-19T00:58:14.936Z,96.22
2019-05-19T00:59:14.920Z,96.42
2019-05-19T01:00:14.917Z,95.65
2019-05-19T01:01:14.888Z,95.56
2019-05-19T01:02:14.874Z,96.42
2019-05-19T01:03:14.859Z,96.22
2019-05-19T01:04:14.846Z,96.22
2019-05-19T01:05:14.831Z,96.03
2019-05-19T01:06:14.815Z,96.61
2019-05-19T01:07:14.805Z,96.42
2019-05-19T01:08:14.787Z,96.80
2019-05-19T01:09:14.770Z,96.51
2019-05-19T01:10:14.757Z,96.42
2019-05-19T01:11:14.739Z,97.09
2019-05-19T01:12:14.731Z,97.66
2019-05-19T01:13:14.710Z,97.38
2019-05-19T01:14:15.449Z,97.28
2019-05-19T01:15:14.681Z,97.38
2019-05-19T01:16:14.667Z,97.66
2019-05-19T01:17:14.652Z,97.47
2019-05-19T01:18:14.638Z,97.66
2019-05-19T01:19:14.622Z,97.28
2019-05-19T01:20:14.649Z,97.47
2019-05-19T01:21:14.592Z,97.66
2019-05-19T01:22:14.582Z,97.18
2019-05-19T01:23:14.572Z,97.47
2019-05-19T01:24:14.554Z,97.66
2019-05-19T01:25:14.541Z,97.38
2019-05-19T01:26:14.585Z,97.76
2019-05-19T01:27:14.504Z,97.71
2019-05-19T01:28:14.488Z,97.95
2019-05-19T01:29:14.473Z,97.80
2019-05-19T01:30:14.459Z,97.90
2019-05-19T01:31:14.444Z,98.28
2019-05-19T01:32:14.428Z,97.90
2019-05-19T01:33:14.418Z,98.19
2019-05-19T01:34:14.398Z,98.38
2019-05-19T01:35:14.385Z,98.38
2019-05-19T01:36:14.368Z,98.57
2019-05-19T01:37:14.360Z,98.67
2019-05-19T01:38:14.346Z,98.10
2019-05-19T01:39:14.331Z,98.47
2019-05-19T01:40:14.311Z,99.05
2019-05-19T01:41:14.294Z,98.38
2019-05-19T01:42:14.279Z,98.57
2019-05-19T01:43:14.263Z,99.24
2019-05-19T01:44:14.245Z,98.86
2019-05-19T01:45:14.239Z,98.86
2019-05-19T01:46:14.221Z,98.96
2019-05-19T01:47:14.204Z,99.15
2019-05-19T01:48:14.188Z,98.86
2019-05-19T01:49:14.226Z,98.86
2019-05-19T01:50:18.105Z,98.96
2019-05-19T01:51:14.175Z,98.96
2019-05-19T01:52:14.128Z,98.67
2019-05-19T01:53:14.115Z,99.05
2019-05-19T01:54:16.741Z,99.24
2019-05-19T01:55:14.083Z,98.86
2019-05-19T01:56:14.069Z,98.96
2019-05-19T01:57:14.060Z,98.19
2019-05-19T01:58:14.036Z,99.24
2019-05-19T01:59:14.022Z,99.15
2019-05-19T02:00:14.006Z,98.76
2019-05-19T02:01:13.991Z,99.05
2019-05-19T02:02:13.974Z,99.05
2019-05-19T02:03:13.971Z,98.76
2019-05-19T02:04:13.946Z,99.15
2019-05-19T02:05:13.933Z,99.05
2019-05-19T02:06:13.918Z,99.53
2019-05-19T02:07:13.905Z,99.72
2019-05-19T02:08:13.891Z,99.53
2019-05-19T02:09:13.868Z,99.34
2019-05-19T02:10:13.856Z,99.58
2019-05-19T02:11:13.838Z,99.58
2019-05-19T02:12:13.825Z,99.53
2019-05-19T02:13:13.811Z,99.67
2019-05-19T02:14:13.801Z,99.91
2019-05-19T02:15:13.778Z,99.63
2019-05-19T02:16:13.772Z,99.96
2019-05-19T02:17:13.748Z,99.87
2019-05-19T02:18:13.735Z,99.99
2019-05-19T02:19:13.722Z,99.99
2019-05-19T02:20:13.705Z,99.99
2019-05-19T02:21:13.686Z,99.99
2019-05-19T02:22:13.673Z,99.99
2019-05-19T02:23:13.656Z,99.99
2019-05-19T02:24:13.644Z,99.99
2019-05-19T02:25:13.627Z,99.99
2019-05-19T02:26:13.619Z,99.99
2019-05-19T02:27:13.600Z,99.99
2019-05-19T02:28:13.578Z,99.99
2019-05-19T02:29:13.568Z,99.99
2019-05-19T02:30:13.549Z,99.99
2019-05-19T02:31:13.534Z,99.99
2019-05-19T02:32:13.518Z,99.99
2019-05-19T02:33:13.503Z,99.99
2019-05-19T02:34:13.493Z,99.99
2019-05-19T02:35:13.474Z,99.99
2019-05-19T02:36:13.459Z,99.99
2019-05-19T02:37:13.441Z,99.99
2019-05-19T02:38:13.439Z,99.99
2019-05-19T02:39:13.416Z,99.99
2019-05-19T02:40:13.396Z,99.99
2019-05-19T02:41:13.381Z,99.99
2019-05-19T02:42:13.368Z,99.99
2019-05-19T02:43:13.351Z,99.99
2019-05-19T02:44:13.334Z,99.99
2019-05-19T02:45:13.328Z,99.99
2019-05-19T02:46:13.305Z,99.99
2019-05-19T02:47:13.290Z,99.99
2019-05-19T02:48:13.277Z,99.99
2019-05-19T02:49:13.258Z,99.99
2019-05-19T02:50:13.242Z,99.99
2019-05-19T02:51:13.233Z,99.99
2019-05-19T02:52:13.222Z,99.99
2019-05-19T02:53:13.197Z,99.99
2019-05-19T02:54:13.179Z,99.99
2019-05-19T02:55:13.170Z,99.99
2019-05-19T02:56:13.148Z,99.99
2019-05-19T02:57:13.136Z,99.99
2019-05-19T02:58:13.119Z,99.99
2019-05-19T02:59:13.101Z,99.99
2019-05-19T03:00:13.103Z,99.99
2019-05-19T03:01:13.073Z,99.99
2019-05-19T03:02:13.063Z,99.99
2019-05-19T03:03:13.153Z,99.99
2019-05-19T03:04:13.025Z,99.99
2019-05-19T03:05:13.022Z,99.99
2019-05-19T03:06:12.996Z,99.99
2019-05-19T03:07:12.984Z,99.99
2019-05-19T03:08:12.963Z,99.99
2019-05-19T03:09:12.949Z,99.99
2019-05-19T03:10:12.936Z,99.99
2019-05-19T03:11:12.918Z,99.99
2019-05-19T03:12:12.911Z,99.99
2019-05-19T03:13:12.887Z,99.99
2019-05-19T03:14:12.872Z,99.99
2019-05-19T03:15:12.866Z,99.99
2019-05-19T03:16:12.840Z,99.99
2019-05-19T03:17:12.826Z,99.99
2019-05-19T03:18:12.813Z,99.99
2019-05-19T03:19:12.795Z,99.99
2019-05-19T03:20:12.780Z,99.99
2019-05-19T03:21:12.771Z,99.99
2019-05-19T03:22:12.754Z,99.99
2019-05-19T03:23:12.733Z,99.99
2019-05-19T03:24:12.717Z,99.99
2019-05-19T03:25:12.712Z,99.99
2019-05-19T03:26:12.695Z,99.99
2019-05-19T03:27:12.672Z,99.99
2019-05-19T03:28:12.673Z,99.99
2019-05-19T03:29:12.638Z,99.99
2019-05-19T03:30:12.627Z,99.99
2019-05-19T03:31:12.618Z,99.99
2019-05-19T03:32:13.124Z,99.99
2019-05-19T03:33:12.683Z,99.99
2019-05-19T03:34:12.569Z,99.99
2019-05-19T03:35:12.579Z,99.99
2019-05-19T03:36:12.541Z,99.99
2019-05-19T03:37:12.512Z,99.99
2019-05-19T03:38:12.540Z,99.99
2019-05-19T03:39:12.484Z,99.99
2019-05-19T03:40:12.469Z,99.99
2019-05-19T03:41:12.451Z,99.99
2019-05-19T03:42:12.441Z,99.99
2019-05-19T03:43:12.420Z,99.99
2019-05-19T03:44:12.408Z,99.99
2019-05-19T03:45:12.391Z,99.99
2019-05-19T03:46:12.374Z,99.99
2019-05-19T03:47:12.358Z,99.99
2019-05-19T03:48:12.340Z,99.99
2019-05-19T03:49:12.333Z,99.99
2019-05-19T03:50:12.315Z,99.99
2019-05-19T03:51:29.364Z,99.99
2019-05-19T03:52:12.280Z,99.99
2019-05-19T03:53:12.266Z,99.99
2019-05-19T03:54:12.248Z,99.99
2019-05-19T03:55:12.237Z,99.99
2019-05-19T03:56:12.216Z,99.99
2019-05-19T03:57:12.201Z,99.99
2019-05-19T03:58:12.187Z,99.99
2019-05-19T03:59:12.175Z,99.99
2019-05-19T04:00:12.156Z,99.99
2019-05-19T04:01:12.139Z,99.99
2019-05-19T04:02:12.127Z,99.99
2019-05-19T04:03:12.107Z,99.99
2019-05-19T04:04:12.092Z,99.99
2019-05-19T04:05:12.079Z,99.99
2019-05-19T04:06:12.061Z,99.99
2019-05-19T04:07:12.046Z,99.99
2019-05-19T04:08:12.035Z,99.99
2019-05-19T04:09:12.023Z,99.99
2019-05-19T04:10:12.003Z,99.99
2019-05-19T04:11:11.981Z,99.99
2019-05-19T04:12:11.967Z,99.99
2019-05-19T04:13:11.951Z,99.99
2019-05-19T04:14:11.934Z,99.99
2019-05-19T04:15:11.920Z,99.99
2019-05-19T04:16:11.905Z,99.99
2019-05-19T04:17:11.891Z,99.99
2019-05-19T04:18:11.885Z,99.99
2019-05-19T04:19:11.864Z,99.99
2019-05-19T04:20:11.842Z,99.99
2019-05-19T04:21:11.830Z,99.99
2019-05-19T04:22:11.817Z,99.99
2019-05-19T04:23:11.808Z,99.99
2019-05-19T04:24:11.779Z,99.99
2019-05-19T04:25:11.765Z,99.99
2019-05-19T04:26:11.755Z,99.99
2019-05-19T04:27:11.732Z,99.99
2019-05-19T04:28:11.720Z,99.99
2019-05-19T04:29:11.706Z,99.99
2019-05-19T04:30:11.687Z,99.99
2019-05-19T04:31:11.673Z,99.99
2019-05-19T04:32:11.660Z,99.99
2019-05-19T04:33:11.677Z,99.99
2019-05-19T04:34:11.624Z,99.99
2019-05-19T04:35:11.610Z,99.99
2019-05-19T04:36:11.598Z,99.99
2019-05-19T04:37:11.583Z,99.99
2019-05-19T04:38:11.562Z,99.99
2019-05-19T04:39:11.553Z,99.99
2019-05-19T04:40:11.537Z,99.99
2019-05-19T04:41:11.519Z,99.99
2019-05-19T04:42:11.508Z,99.99
2019-05-19T04:43:11.502Z,99.99
2019-05-19T04:44:11.473Z,99.99
2019-05-19T04:45:11.454Z,99.99
2019-05-19T04:46:11.455Z,99.99
2019-05-19T04:47:11.428Z,99.99
2019-05-19T04:48:11.411Z,99.99
2019-05-19T04:49:11.398Z,99.99
2019-05-19T04:50:11.377Z,99.99
2019-05-19T04:51:11.366Z,99.99
2019-05-19T04:52:11.355Z,99.99
2019-05-19T04:53:11.335Z,99.99
2019-05-19T04:54:11.320Z,99.99
2019-05-19T04:55:11.304Z,99.99
2019-05-19T04:56:11.294Z,99.99
2019-05-19T04:57:11.272Z,99.99
2019-05-19T04:58:11.260Z,99.99
2019-05-19T04:59:11.244Z,99.99
2019-05-19T05:00:11.231Z,99.99
2019-05-19T05:01:11.210Z,99.99
2019-05-19T05:02:11.195Z,99.99
2019-05-19T05:03:11.200Z,99.99
2019-05-19T05:04:11.165Z,99.99
2019-05-19T05:05:11.148Z,99.99
2019-05-19T05:06:11.138Z,99.99
2019-05-19T05:07:11.127Z,99.99
2019-05-19T05:08:28.071Z,99.99
2019-05-19T05:09:11.089Z,99.99
2019-05-19T05:10:11.086Z,99.99
2019-05-19T05:11:11.076Z,99.99
2019-05-19T05:12:11.045Z,99.99
2019-05-19T05:13:11.031Z,99.99
2019-05-19T05:14:11.013Z,99.99
2019-05-19T05:15:10.998Z,99.99
2019-05-19T05:16:10.983Z,99.99
2019-05-19T05:17:10.971Z,99.99
2019-05-19T05:18:10.950Z,99.99
2019-05-19T05:19:10.941Z,99.99
2019-05-19T05:20:10.920Z,99.99
2019-05-19T05:21:10.907Z,99.99
2019-05-19T05:22:21.649Z,99.99
2019-05-19T05:23:10.884Z,99.99
2019-05-19T05:24:10.863Z,99.99
2019-05-19T05:25:10.845Z,99.99
2019-05-19T05:26:10.833Z,99.99
2019-05-19T05:27:10.840Z,99.99
2019-05-19T05:28:10.801Z,99.77
2019-05-19T05:29:10.790Z,99.87
2019-05-19T05:30:10.785Z,99.10
2019-05-19T05:31:10.767Z,99.39
2019-05-19T05:32:10.745Z,99.29
2019-05-19T05:33:10.743Z,98.62
2019-05-19T05:34:10.719Z,98.38
2019-05-19T05:35:10.709Z,97.61
2019-05-19T05:36:10.684Z,98.00
2019-05-19T05:37:10.678Z,97.52
2019-05-19T05:38:10.657Z,97.42
2019-05-19T05:39:10.645Z,97.14
2019-05-19T05:40:10.775Z,96.37
2019-05-19T05:41:10.613Z,96.66
2019-05-19T05:42:10.605Z,96.18
2019-05-19T05:43:10.592Z,95.70
2019-05-19T05:44:10.568Z,95.31
2019-05-19T05:45:10.560Z,95.51
2019-05-19T05:46:10.543Z,95.21
2019-05-19T05:47:10.525Z,95.26
2019-05-19T05:48:10.515Z,94.49
2019-05-19T05:49:10.500Z,94.21
2019-05-19T05:50:10.495Z,93.92
2019-05-19T05:51:10.474Z,94.12
2019-05-19T05:52:10.456Z,94.31
2019-05-19T05:53:10.445Z,94.21
2019-05-19T05:54:10.435Z,94.40
2019-05-19T05:55:10.420Z,94.12
2019-05-19T05:56:10.406Z,93.73
2019-05-19T05:57:10.396Z,94.21
2019-05-19T05:58:10.379Z,93.82
2019-05-19T05:59:10.363Z,93.54
2019-05-19T06:00:10.357Z,93.63
2019-05-19T06:01:10.345Z,92.63
2019-05-19T06:02:10.318Z,92.43
2019-05-19T06:03:10.306Z,92.33
2019-05-19T06:04:10.293Z,92.24
2019-05-19T06:05:10.278Z,91.57
2019-05-19T06:06:10.263Z,91.19
2019-05-19T06:07:10.247Z,90.80
2019-05-19T06:08:10.246Z,90.90
2019-05-19T06:09:10.222Z,91.09
2019-05-19T06:10:10.208Z,91.19
2019-05-19T06:11:10.194Z,90.84
2019-05-19T06:12:10.181Z,90.84
2019-05-19T06:13:10.165Z,90.56
2019-05-19T06:14:10.153Z,90.08
2019-05-19T06:15:10.141Z,90.08
2019-05-19T06:16:10.197Z,90.08
2019-05-19T06:17:10.112Z,89.89
2019-05-19T06:18:10.095Z,89.50
2019-05-19T06:19:10.101Z,89.31
2019-05-19T06:20:10.075Z,89.40
2019-05-19T06:21:10.057Z,89.22
2019-05-19T06:22:10.045Z,89.36
2019-05-19T06:23:10.031Z,88.87
2019-05-19T06:24:10.020Z,88.39
2019-05-19T06:25:10.016Z,88.10
2019-05-19T06:26:10.003Z,88.49
2019-05-19T06:27:09.976Z,88.87
2019-05-19T06:28:09.967Z,88.49
2019-05-19T06:29:09.954Z,88.49
2019-05-19T06:30:09.943Z,87.34
2019-05-19T06:31:09.945Z,87.09
2019-05-19T06:32:09.912Z,87.19
2019-05-19T06:33:09.898Z,86.71
2019-05-19T06:34:09.913Z,87.19
2019-05-19T06:35:09.874Z,86.61
2019-05-19T06:36:09.864Z,86.13
2019-05-19T06:37:09.849Z,86.42
2019-05-19T06:38:09.840Z,85.84
2019-05-19T06:39:09.826Z,85.94
2019-05-19T06:40:09.811Z,85.65
2019-05-19T06:41:09.797Z,85.60
2019-05-19T06:42:09.791Z,84.83
2019-05-19T06:43:09.773Z,84.92
2019-05-19T06:44:09.762Z,84.83
2019-05-19T06:45:09.747Z,84.54
2019-05-19T06:46:09.741Z,84.92
2019-05-19T06:47:09.723Z,85.31
2019-05-19T06:48:09.711Z,85.69
2019-05-19T06:49:09.699Z,85.02
2019-05-19T06:50:09.685Z,84.77
2019-05-19T06:51:09.678Z,84.63
2019-05-19T06:52:09.663Z,84.77
2019-05-19T06:53:14.145Z,84.97
2019-05-19T06:54:09.668Z,84.77
2019-05-19T06:55:09.623Z,84.39
2019-05-19T06:56:09.610Z,84.87
2019-05-19T06:57:09.597Z,84.97
2019-05-19T06:58:09.584Z,84.87
2019-05-19T06:59:09.574Z,84.77
2019-05-19T07:00:09.562Z,84.97
2019-05-19T07:01:09.546Z,84.58
2019-05-19T07:02:09.537Z,85.10
2019-05-19T07:03:09.524Z,84.72
2019-05-19T07:04:09.520Z,84.14
2019-05-19T07:05:09.502Z,84.23
2019-05-19T07:06:09.534Z,83.95
2019-05-19T07:07:09.485Z,83.75
2019-05-19T07:08:09.463Z,83.56
2019-05-19T07:09:09.451Z,83.85
2019-05-19T07:10:09.445Z,84.14
2019-05-19T07:11:09.522Z,83.91
2019-05-19T07:12:09.500Z,84.00
2019-05-19T07:13:09.406Z,83.52
2019-05-19T07:14:09.394Z,83.18
2019-05-19T07:15:09.382Z,84.10
2019-05-19T07:16:09.384Z,84.29
2019-05-19T07:17:09.357Z,84.97
2019-05-19T07:18:09.344Z,84.19
2019-05-19T07:19:09.335Z,84.39
2019-05-19T07:20:09.331Z,84.91
2019-05-19T07:21:09.311Z,85.10
2019-05-19T07:22:09.304Z,85.20
2019-05-19T07:23:09.298Z,84.81
2019-05-19T07:24:09.275Z,84.43
2019-05-19T07:25:09.263Z,84.72
2019-05-19T07:26:09.258Z,84.86
2019-05-19T07:27:09.245Z,85.05
2019-05-19T07:28:09.231Z,84.86
2019-05-19T07:29:09.222Z,84.56
2019-05-19T07:30:09.208Z,84.09
2019-05-19T07:31:09.197Z,84.47
2019-05-19T07:32:09.187Z,83.99
2019-05-19T07:33:09.180Z,84.14
2019-05-19T07:34:09.160Z,84.18
2019-05-19T07:35:09.169Z,84.18
2019-05-19T07:36:09.174Z,84.09
2019-05-19T07:37:09.164Z,84.66
2019-05-19T07:38:09.119Z,84.28
2019-05-19T07:39:09.106Z,84.47
2019-05-19T07:40:09.089Z,83.99
2019-05-19T07:41:09.087Z,83.51
2019-05-19T07:42:09.071Z,83.80
2019-05-19T07:43:09.067Z,83.36
2019-05-19T07:44:09.044Z,82.78
2019-05-19T07:45:09.032Z,82.10
2019-05-19T07:46:09.020Z,82.59
2019-05-19T07:47:09.009Z,81.81
2019-05-19T07:48:09.000Z,80.85
2019-05-19T07:49:08.985Z,79.50
2019-05-19T07:50:08.974Z,80.76
2019-05-19T07:51:08.963Z,80.18
2019-05-19T07:52:08.953Z,78.15
2019-05-19T07:53:08.942Z,78.06
2019-05-19T07:54:08.945Z,79.83
2019-05-19T07:55:08.923Z,78.44
2019-05-19T07:56:08.907Z,78.44
2019-05-19T07:57:08.906Z,78.54
2019-05-19T07:58:08.891Z,77.58
2019-05-19T07:59:08.873Z,77.71
2019-05-19T08:00:09.178Z,77.51
2019-05-19T08:01:08.853Z,77.90
2019-05-19T08:02:08.840Z,78.38
2019-05-19T08:03:08.829Z,76.84
2019-05-19T08:04:08.817Z,77.81
2019-05-19T08:05:08.806Z,77.51
2019-05-19T08:06:08.844Z,76.68
2019-05-19T08:07:08.790Z,76.30
2019-05-19T08:08:08.802Z,76.50
2019-05-19T08:09:08.763Z,76.40
2019-05-19T08:10:08.753Z,76.43
2019-05-19T08:11:08.747Z,74.69
2019-05-19T08:12:08.739Z,74.69
2019-05-19T08:13:08.720Z,75.02
2019-05-19T08:14:08.712Z,72.90
2019-05-19T08:15:08.702Z,72.45
2019-05-19T08:16:08.689Z,73.61
2019-05-19T08:17:08.690Z,72.36
2019-05-19T08:18:08.677Z,73.46
2019-05-19T08:19:08.668Z,72.04
2019-05-19T08:20:08.673Z,70.98
2019-05-19T08:21:08.647Z,69.75
2019-05-19T08:22:08.664Z,67.53
2019-05-19T08:23:08.637Z,68.15
2019-05-19T08:24:08.629Z,67.79
2019-05-19T08:25:08.626Z,65.47
2019-05-19T08:26:08.612Z,65.27
2019-05-19T08:27:08.609Z,65.56
2019-05-19T08:28:09.243Z,63.95
2019-05-19T08:29:08.603Z,63.27
2019-05-19T08:30:08.590Z,62.10
2019-05-19T08:31:08.580Z,61.72
2019-05-19T08:32:08.571Z,62.79
2019-05-19T08:33:08.569Z,60.97
2019-05-19T08:34:08.719Z,61.07
2019-05-19T08:35:08.565Z,59.52
2019-05-19T08:36:08.553Z,59.91
2019-05-19T08:37:08.556Z,60.42
2019-05-19T08:38:08.564Z,60.52
2019-05-19T08:39:08.546Z,60.16
2019-05-19T08:40:08.549Z,58.90
2019-05-19T08:41:08.555Z,58.05
2019-05-19T08:42:08.526Z,58.25
2019-05-19T08:43:08.522Z,57.89
2019-05-19T08:44:08.516Z,56.65
2019-05-19T08:45:08.516Z,56.07
2019-05-19T08:46:08.519Z,55.83
2019-05-19T08:47:08.509Z,55.41
2019-05-19T08:48:08.511Z,55.05
2019-05-19T08:49:08.507Z,53.67
2019-05-19T08:50:08.501Z,54.71
2019-05-19T08:51:08.498Z,53.45
2019-05-19T08:52:08.495Z,54.78
2019-05-19T08:53:08.491Z,56.01
2019-05-19T08:54:15.086Z,56.86
2019-05-19T08:55:08.487Z,57.12
2019-05-19T08:56:08.478Z,58.48
2019-05-19T08:57:08.480Z,57.90
2019-05-19T08:58:08.490Z,57.58
2019-05-19T08:59:08.467Z,58.16
2019-05-19T09:00:08.466Z,58.91
2019-05-19T09:01:08.457Z,60.07
2019-05-19T09:02:08.445Z,59.23
2019-05-19T09:03:08.444Z,58.45
2019-05-19T09:04:08.431Z,58.45
2019-05-19T09:05:08.432Z,58.87
2019-05-19T09:06:08.435Z,57.96
2019-05-19T09:07:08.413Z,57.31
2019-05-19T09:08:08.415Z,56.39
2019-05-19T09:09:08.412Z,56.15
2019-05-19T09:10:08.397Z,54.26
2019-05-19T09:11:08.398Z,52.95
2019-05-19T09:12:08.391Z,50.34
2019-05-19T09:13:08.393Z,47.22
2019-05-19T09:14:08.380Z,46.14
2019-05-19T09:15:08.391Z,45.46
2019-05-19T09:16:08.377Z,45.97
2019-05-19T09:17:08.372Z,45.95
2019-05-19T09:18:08.368Z,46.78
2019-05-19T09:19:08.370Z,46.29
2019-05-19T09:20:08.377Z,46.48
2019-05-19T09:21:08.357Z,46.29
2019-05-19T09:22:08.360Z,46.39
2019-05-19T09:23:08.351Z,46.39
2019-05-19T09:24:08.348Z,47.75
2019-05-19T09:25:08.348Z,47.85
2019-05-19T09:26:08.349Z,47.97
2019-05-19T09:27:08.346Z,45.92
2019-05-19T09:28:08.335Z,45.16
2019-05-19T09:29:08.338Z,45.47
2019-05-19T09:30:08.331Z,44.67
2019-05-19T09:31:08.342Z,44.77
2019-05-19T09:32:08.326Z,45.36
2019-05-19T09:33:08.322Z,44.96
2019-05-19T09:34:08.321Z,45.06
2019-05-19T09:35:08.317Z,44.30
2019-05-19T09:36:08.315Z,44.79
2019-05-19T09:37:08.311Z,43.34
2019-05-19T09:38:08.314Z,42.56
2019-05-19T09:39:08.307Z,43.76
2019-05-19T09:40:08.304Z,43.46
2019-05-19T09:41:08.310Z,42.46
2019-05-19T09:42:08.303Z,42.76
2019-05-19T09:43:08.301Z,43.54
2019-05-19T09:44:08.304Z,41.21
2019-05-19T09:45:08.290Z,40.55
2019-05-19T09:46:08.287Z,40.11
2019-05-19T09:47:08.284Z,41.60
2019-05-19T09:48:08.291Z,42.29
2019-05-19T09:49:08.287Z,42.48
2019-05-19T09:50:08.274Z,42.27
2019-05-19T09:51:08.270Z,42.58
2019-05-19T09:52:08.264Z,43.56
2019-05-19T09:53:08.266Z,42.88
2019-05-19T09:54:08.259Z,41.99
2019-05-19T09:55:08.274Z,43.38
2019-05-19T09:56:08.253Z,42.13
2019-05-19T09:57:08.269Z,43.12
2019-05-19T09:58:08.249Z,41.47
2019-05-19T09:59:08.241Z,41.17
2019-05-19T10:00:08.249Z,42.05
2019-05-19T10:01:08.238Z,43.21
2019-05-19T10:02:08.240Z,42.03
2019-05-19T10:03:08.230Z,40.95
2019-05-19T10:04:08.225Z,41.52
2019-05-19T10:05:08.225Z,41.27
2019-05-19T10:06:08.222Z,42.60
2019-05-19T10:07:08.751Z,43.40
2019-05-19T10:08:08.206Z,44.49
2019-05-19T10:09:08.211Z,44.71
2019-05-19T10:10:08.198Z,43.66
2019-05-19T10:11:08.198Z,42.09
2019-05-19T10:12:08.191Z,42.64
2019-05-19T10:13:08.185Z,44.35
2019-05-19T10:14:08.188Z,44.51
2019-05-19T10:15:08.181Z,46.12
2019-05-19T10:16:08.168Z,46.56
2019-05-19T10:17:08.166Z,47.61
2019-05-19T10:18:08.157Z,47.61
2019-05-19T10:19:08.152Z,47.61
2019-05-19T10:20:08.220Z,48.07
2019-05-19T10:21:08.145Z,48.85
2019-05-19T10:22:08.135Z,49.27
2019-05-19T10:23:08.131Z,49.32
2019-05-19T10:24:08.122Z,48.75
2019-05-19T10:25:20.988Z,48.68
2019-05-19T10:26:08.109Z,47.85
2019-05-19T10:27:08.107Z,47.09
2019-05-19T10:28:08.114Z,45.36
2019-05-19T10:29:08.096Z,44.87
2019-05-19T10:30:08.097Z,42.91
2019-05-19T10:31:08.106Z,42.99
2019-05-19T10:32:08.077Z,45.51
2019-05-19T10:33:08.073Z,46.93
2019-05-19T10:34:08.098Z,47.80
2019-05-19T10:35:08.060Z,47.92
2019-05-19T10:36:08.061Z,47.52
2019-05-19T10:37:08.046Z,47.80
2019-05-19T10:38:08.040Z,47.98
2019-05-19T10:39:08.035Z,48.85
2019-05-19T10:40:08.029Z,49.02
2019-05-19T10:41:08.020Z,49.78
2019-05-19T10:42:08.016Z,49.85
2019-05-19T10:43:08.009Z,50.12
2019-05-19T10:44:08.001Z,51.06
2019-05-19T10:45:07.994Z,52.81
2019-05-19T10:46:07.987Z,52.81
2019-05-19T10:47:07.980Z,52.84
2019-05-19T10:48:07.983Z,53.03
2019-05-19T10:49:07.967Z,53.93
2019-05-19T10:50:07.958Z,53.54
2019-05-19T10:51:07.950Z,50.04
2019-05-19T10:52:07.977Z,49.00
2019-05-19T10:53:07.932Z,51.04
2019-05-19T10:54:07.928Z,51.26
2019-05-19T10:55:07.920Z,51.55
2019-05-19T10:56:07.912Z,49.99
2019-05-19T10:57:07.915Z,50.90
2019-05-19T10:58:07.901Z,48.85
2019-05-19T10:59:07.893Z,47.49
2019-05-19T11:00:07.891Z,48.10
2019-05-19T11:01:07.879Z,49.46
2019-05-19T11:02:07.870Z,48.22
2019-05-19T11:03:07.866Z,47.95
2019-05-19T11:04:07.873Z,46.39
2019-05-19T11:05:11.029Z,47.27
2019-05-19T11:06:07.906Z,47.63
2019-05-19T11:07:07.844Z,47.44
2019-05-19T11:08:07.837Z,47.34
2019-05-19T11:09:07.826Z,46.37
2019-05-19T11:10:07.819Z,48.29
2019-05-19T11:11:07.808Z,47.22
2019-05-19T11:12:07.805Z,47.52
2019-05-19T11:13:07.809Z,47.90
2019-05-19T11:14:07.796Z,47.63
2019-05-19T11:15:07.781Z,47.53
2019-05-19T11:16:07.771Z,46.30
2019-05-19T11:17:07.775Z,45.51
2019-05-19T11:18:07.789Z,45.42
2019-05-19T11:19:07.774Z,46.30
2019-05-19T11:20:07.765Z,44.83
2019-05-19T11:21:07.748Z,44.81
2019-05-19T11:22:07.736Z,44.79
2019-05-19T11:23:07.727Z,44.98
2019-05-19T11:24:07.717Z,46.25
2019-05-19T11:25:07.711Z,45.95
2019-05-19T11:26:07.704Z,47.42
2019-05-19T11:27:10.072Z,46.64
2019-05-19T11:28:07.696Z,47.53
2019-05-19T11:29:07.680Z,44.32
2019-05-19T11:30:07.673Z,45.03
2019-05-19T11:31:07.675Z,42.96
2019-05-19T11:32:07.658Z,44.03
2019-05-19T11:33:07.659Z,44.32
2019-05-19T11:34:07.647Z,44.42
2019-05-19T11:35:07.645Z,46.27
2019-05-19T11:36:07.632Z,45.88
2019-05-19T11:37:07.629Z,45.98
2019-05-19T11:38:07.621Z,46.08
2019-05-19T11:39:07.612Z,45.98
2019-05-19T11:40:07.613Z,44.90
2019-05-19T11:41:07.601Z,44.49
2019-05-19T11:42:07.590Z,43.33
2019-05-19T11:43:07.589Z,45.08
2019-05-19T11:44:07.582Z,46.27
2019-05-19T11:45:07.572Z,43.54
2019-05-19T11:46:07.563Z,42.76
2019-05-19T11:47:07.557Z,43.35
2019-05-19T11:48:07.550Z,43.64
2019-05-19T11:49:07.551Z,43.23
2019-05-19T11:50:07.535Z,44.76
2019-05-19T11:51:07.533Z,46.23
2019-05-19T11:52:07.528Z,46.40
2019-05-19T11:53:07.518Z,47.08
2019-05-19T11:54:07.508Z,47.66
2019-05-19T11:55:07.498Z,47.05
2019-05-19T11:56:11.257Z,48.15
2019-05-19T11:57:07.491Z,47.74
2019-05-19T11:58:07.499Z,47.93
2019-05-19T11:59:07.470Z,48.13
2019-05-19T12:00:07.463Z,48.00
2019-05-19T12:01:07.471Z,48.10
2019-05-19T12:02:07.455Z,48.49
2019-05-19T12:03:07.448Z,49.27
2019-05-19T12:04:07.432Z,49.07
2019-05-19T12:05:07.424Z,48.78
2019-05-19T12:06:07.431Z,48.10
2019-05-19T12:07:07.423Z,47.91
2019-05-19T12:08:07.400Z,47.91
2019-05-19T12:09:07.397Z,49.29
2019-05-19T12:10:07.386Z,48.32
2019-05-19T12:11:07.382Z,48.20
2019-05-19T12:12:07.376Z,47.74
2019-05-19T12:13:07.361Z,48.20
2019-05-19T12:14:07.356Z,48.49
2019-05-19T12:15:07.359Z,49.27
2019-05-19T12:16:07.348Z,47.71
2019-05-19T12:17:07.340Z,48.68
2019-05-19T12:18:07.327Z,47.93
2019-05-19T12:19:07.316Z,48.51
2019-05-19T12:20:07.323Z,49.90
2019-05-19T12:21:07.310Z,47.37
2019-05-19T12:22:07.292Z,48.15
2019-05-19T12:23:07.304Z,47.17
2019-05-19T12:24:07.276Z,46.78
2019-05-19T12:25:07.266Z,46.50
2019-05-19T12:26:22.266Z,46.61
2019-05-19T12:27:07.251Z,47.13
2019-05-19T12:28:07.246Z,45.35
2019-05-19T12:29:07.234Z,45.32
2019-05-19T12:30:07.235Z,44.94
2019-05-19T12:31:07.223Z,44.65
2019-05-19T12:32:07.215Z,44.04
2019-05-19T12:33:07.211Z,44.31
2019-05-19T12:34:07.198Z,44.99
2019-05-19T12:35:07.190Z,48.22
2019-05-19T12:36:07.187Z,47.44
2019-05-19T12:37:07.177Z,47.74
2019-05-19T12:38:07.167Z,46.86
2019-05-19T12:39:07.166Z,46.28
2019-05-19T12:40:07.168Z,44.72
2019-05-19T12:41:07.153Z,43.54
2019-05-19T12:42:07.140Z,43.16
2019-05-19T12:43:07.128Z,43.07
2019-05-19T12:44:07.123Z,42.99
2019-05-19T12:45:07.111Z,43.29
2019-05-19T12:46:16.054Z,42.72
2019-05-19T12:47:07.106Z,43.11
2019-05-19T12:48:07.090Z,41.75
2019-05-19T12:49:07.085Z,42.16
2019-05-19T12:50:07.356Z,41.57
2019-05-19T12:51:07.078Z,42.08
2019-05-19T12:52:07.073Z,40.89